Time;durP1;ratioP1;P1;durP2;ratioP2;P2;SDS_P1;SDS_P2;PMS_P1;PMS_P2;Temp;Humidity;BMP_temperature;BMP_pressure;BME280_temperature;BME280_humidity;BME280_pressure;Samples;Min_cycle;Max_cycle;Signal;HPM_P1;HPM_P2
2022/10/31 00:01:38;;;;;;;;;;;11.10;99.90;;;;;;5050406;28;19987;-69
2022/10/31 00:04:05;;;;;;;;;;;11.00;99.90;;;;;;5065295;28;19955;-69
2022/10/31 00:06:32;;;;;;;;;;;11.00;99.90;;;;;;5064997;28;19980;-69
2022/10/31 00:08:59;;;;;;;;;;;10.90;99.90;;;;;;5065488;28;19943;-69
2022/10/31 00:11:27;;;;;;;;;;;10.90;99.90;;;;;;5056808;28;20528;-69
2022/10/31 00:13:54;;;;;;;;;;;10.80;99.90;;;;;;5064928;28;19988;-69
2022/10/31 00:16:22;;;;;;;;;;;10.80;99.90;;;;;;5064933;28;19921;-69
2022/10/31 00:18:49;;;;;;;;;;;10.70;99.90;;;;;;5065179;28;19988;-69
2022/10/31 00:21:15;;;;;;;;;;;10.70;99.90;;;;;;5065187;28;19921;-69
2022/10/31 00:23:42;;;;;;;;;;;10.60;99.90;;;;;;5064936;28;19921;-69
2022/10/31 00:26:08;;;;;;;;;;;10.50;99.90;;;;;;5055936;28;19984;-69
2022/10/31 00:28:36;;;;;;;;;;;10.50;99.90;;;;;;5051942;28;19928;-69
2022/10/31 00:31:04;;;;;;;;;;;10.40;99.90;;;;;;5052765;28;19984;-69
2022/10/31 00:33:30;;;;;;;;;;;10.40;99.90;;;;;;5064483;28;20104;-69
2022/10/31 00:35:57;;;;;;;;;;;10.30;99.90;;;;;;5064608;28;19980;-69
2022/10/31 00:38:24;;;;;;;;;;;10.30;99.90;;;;;;5064660;28;20108;-69
2022/10/31 00:40:50;;;;;;;;;;;10.30;99.90;;;;;;5064777;28;19975;-69
2022/10/31 00:43:17;;;;;;;;;;;10.20;99.90;;;;;;5064529;28;19960;-69
2022/10/31 00:45:45;;;;;;;;;;;10.20;99.90;;;;;;5064035;28;20264;-69
2022/10/31 00:48:11;;;;;;;;;;;10.20;99.90;;;;;;5064623;28;19992;-69
2022/10/31 00:50:38;;;;;;;;;;;10.20;99.90;;;;;;5064517;28;19920;-69
2022/10/31 00:53:05;;;;;;;;;;;10.20;99.90;;;;;;5054857;28;19921;-69
2022/10/31 00:55:32;;;;;;;;;;;10.20;99.90;;;;;;5044218;28;19921;-69
2022/10/31 00:57:59;;;;;;;;;;;10.20;99.90;;;;;;5044320;28;20230;-69
2022/10/31 01:00:25;;;;;;;;;;;10.20;99.90;;;;;;5045581;28;19927;-69
2022/10/31 01:02:53;;;;;;;;;;;10.20;99.90;;;;;;5063822;28;19983;-71
2022/10/31 01:05:20;;;;;;;;;;;10.20;99.90;;;;;;5063651;28;19920;-69
2022/10/31 01:07:47;;;;;;;;;;;10.20;99.90;;;;;;5063942;28;20256;-69
2022/10/31 01:10:13;;;;;;;;;;;10.10;99.90;;;;;;5064030;28;20201;-69
2022/10/31 01:12:41;;;;;;;;;;;10.10;99.90;;;;;;5064156;28;19959;-69
2022/10/31 01:15:08;;;;;;;;;;;10.10;99.90;;;;;;5063443;28;19984;-69
2022/10/31 01:17:35;;;;;;;;;;;10.10;99.90;;;;;;5063729;28;20097;-69
2022/10/31 01:20:03;;;;;;;;;;;10.10;99.90;;;;;;5063890;28;19988;-69
2022/10/31 01:22:30;;;;;;;;;;;10.10;99.90;;;;;;5064066;28;19921;-69
2022/10/31 01:24:56;;;;;;;;;;;10.00;99.90;;;;;;5063373;28;19981;-70
2022/10/31 01:27:23;;;;;;;;;;;10.00;99.90;;;;;;5063863;28;20111;-69
2022/10/31 01:29:50;;;;;;;;;;;10.00;99.90;;;;;;5063502;28;19921;-69
2022/10/31 01:32:16;;;;;;;;;;;10.10;99.90;;;;;;5055442;28;19970;-69
2022/10/31 01:34:43;;;;;;;;;;;10.00;99.90;;;;;;5063195;28;19927;-69
2022/10/31 01:37:11;;;;;;;;;;;10.00;99.90;;;;;;5063745;28;19927;-69
2022/10/31 01:39:38;;;;;;;;;;;9.90;99.90;;;;;;5063513;28;19927;-69
2022/10/31 01:42:04;;;;;;;;;;;9.90;99.90;;;;;;5063694;28;19942;-69
2022/10/31 01:44:55;;;;;;;;;;;9.90;99.90;;;;;;5063222;28;20263;-70
2022/10/31 01:47:24;;;;;;;;;;;9.90;99.90;;;;;;5063797;28;19921;-69
2022/10/31 01:49:53;;;;;;;;;;;9.90;99.90;;;;;;5059369;28;20221;-69
2022/10/31 01:52:22;;;;;;;;;;;9.90;99.90;;;;;;5043818;28;19928;-69
2022/10/31 01:54:52;;;;;;;;;;;10.00;99.90;;;;;;5043025;28;19921;-70
2022/10/31 01:57:19;;;;;;;;;;;10.00;99.90;;;;;;5043376;28;19921;-69
2022/10/31 01:59:48;;;;;;;;;;;9.90;99.90;;;;;;5043518;28;19921;-70
2022/10/31 02:02:15;;;;;;;;;;;9.90;99.90;;;;;;5054837;28;19921;-70
2022/10/31 02:04:42;;;;;;;;;;;9.90;99.90;;;;;;5047810;28;19984;-70
2022/10/31 02:07:11;;;;;;;;;;;9.90;99.90;;;;;;5063881;28;19979;-69
2022/10/31 02:09:40;;;;;;;;;;;9.90;99.90;;;;;;5059210;28;19960;-69
2022/10/31 02:12:07;;;;;;;;;;;9.90;99.90;;;;;;5063435;28;19980;-69
2022/10/31 02:14:34;;;;;;;;;;;9.80;99.90;;;;;;5063033;28;20240;-69
2022/10/31 02:17:00;;;;;;;;;;;9.80;99.90;;;;;;5065517;28;19927;-69
2022/10/31 02:19:31;;;;;;;;;;;9.70;99.90;;;;;;5067234;28;20227;-68
2022/10/31 02:22:01;;;;;;;;;;;9.80;99.90;;;;;;5067474;28;19952;-69
2022/10/31 02:24:51;;;;;;;;;;;9.70;99.90;;;;;;5067040;28;19927;-69
2022/10/31 02:27:38;;;;;;;;;;;9.70;99.90;;;;;;5067204;28;19921;-69
2022/10/31 02:30:06;;;;;;;;;;;9.70;99.90;;;;;;5067203;28;20112;-69
2022/10/31 02:32:43;;;;;;;;;;;9.70;99.90;;;;;;5066823;28;19921;-69
2022/10/31 02:35:12;;;;;;;;;;;9.60;99.90;;;;;;5066681;28;19988;-69
2022/10/31 02:37:44;;;;;;;;;;;9.60;99.90;;;;;;5067220;28;19920;-69
2022/10/31 02:40:13;;;;;;;;;;;9.60;99.90;;;;;;5067133;28;19921;-69
2022/10/31 02:42:44;;;;;;;;;;;9.60;99.90;;;;;;5067126;28;19996;-68
2022/10/31 02:45:14;;;;;;;;;;;9.50;99.90;;;;;;5066388;28;19931;-69
2022/10/31 02:47:42;;;;;;;;;;;9.50;99.90;;;;;;5067021;28;19921;-69
2022/10/31 02:50:11;;;;;;;;;;;9.50;99.90;;;;;;5066742;28;19927;-69
2022/10/31 02:52:38;;;;;;;;;;;9.50;99.90;;;;;;5066587;28;20105;-69
2022/10/31 02:55:11;;;;;;;;;;;9.50;99.90;;;;;;5065482;28;19987;-69
2022/10/31 02:57:39;;;;;;;;;;;9.50;99.90;;;;;;5066626;28;20249;-69
2022/10/31 03:00:07;;;;;;;;;;;9.50;99.90;;;;;;5066801;28;19921;-69
2022/10/31 03:02:40;;;;;;;;;;;9.40;99.90;;;;;;5061079;28;19921;-69
2022/10/31 03:05:15;;;;;;;;;;;9.40;99.90;;;;;;5066117;28;20267;-69
2022/10/31 03:07:47;;;;;;;;;;;9.40;99.90;;;;;;5066592;28;20276;-69
2022/10/31 03:10:17;;;;;;;;;;;9.40;99.90;;;;;;5066178;28;19927;-69
2022/10/31 03:12:48;;;;;;;;;;;9.40;99.90;;;;;;5066525;28;20256;-70
2022/10/31 03:15:19;;;;;;;;;;;9.30;99.90;;;;;;5066176;28;20363;-69
2022/10/31 03:17:51;;;;;;;;;;;9.30;99.90;;;;;;5066092;28;19921;-69
2022/10/31 03:20:20;;;;;;;;;;;9.30;99.90;;;;;;5066031;28;19921;-69
2022/10/31 03:22:47;;;;;;;;;;;9.30;99.90;;;;;;5066396;28;19983;-69
2022/10/31 03:25:14;;;;;;;;;;;9.20;99.90;;;;;;5066131;28;19956;-69
2022/10/31 03:27:42;;;;;;;;;;;9.20;99.90;;;;;;5065113;28;19927;-69
2022/10/31 03:30:09;;;;;;;;;;;9.20;99.90;;;;;;5065993;28;20000;-69
2022/10/31 03:32:38;;;;;;;;;;;9.20;99.90;;;;;;5061762;28;19921;-70
2022/10/31 03:35:07;;;;;;;;;;;9.20;99.90;;;;;;5061811;28;19943;-69
2022/10/31 03:37:36;;;;;;;;;;;9.10;99.90;;;;;;5065766;28;19966;-69
2022/10/31 03:40:05;;;;;;;;;;;9.10;99.90;;;;;;5066246;28;19927;-69
2022/10/31 03:42:33;;;;;;;;;;;9.00;99.90;;;;;;5065504;28;20183;-69
2022/10/31 03:45:01;;;;;;;;;;;9.00;99.90;;;;;;5065520;28;19952;-70
2022/10/31 03:47:28;;;;;;;;;;;9.00;99.90;;;;;;5065764;28;19928;-69
2022/10/31 03:49:55;;;;;;;;;;;9.00;99.90;;;;;;5065691;28;20115;-70
2022/10/31 03:52:25;;;;;;;;;;;9.00;99.90;;;;;;5065560;28;19921;-69
2022/10/31 03:54:55;;;;;;;;;;;9.00;99.90;;;;;;5065165;28;19927;-69
2022/10/31 03:57:25;;;;;;;;;;;9.00;99.90;;;;;;5065698;28;19984;-69
2022/10/31 03:59:52;;;;;;;;;;;9.00;99.90;;;;;;5065600;28;19927;-69
2022/10/31 04:02:21;;;;;;;;;;;9.00;99.90;;;;;;5064481;28;19920;-70
2022/10/31 04:04:48;;;;;;;;;;;9.00;99.90;;;;;;5056522;28;19927;-70
2022/10/31 04:07:15;;;;;;;;;;;8.90;99.90;;;;;;5047579;28;19921;-69
2022/10/31 04:09:43;;;;;;;;;;;8.90;99.90;;;;;;5059871;28;20232;-69
2022/10/31 04:12:14;;;;;;;;;;;8.90;99.90;;;;;;5065544;28;19920;-69
2022/10/31 04:14:43;;;;;;;;;;;8.90;99.90;;;;;;5076743;23;20168;-70
2022/10/31 04:17:12;;;;;;;;;;;8.90;99.90;;;;;;5105433;28;19955;-69
2022/10/31 04:19:38;;;;;;;;;;;8.90;99.90;;;;;;5105134;28;19964;-69
2022/10/31 04:22:05;;;;;;;;;;;8.90;99.90;;;;;;5104977;28;19995;-69
2022/10/31 04:24:32;;;;;;;;;;;8.90;99.90;;;;;;5105121;28;20158;-69
2022/10/31 04:26:58;;;;;;;;;;;8.90;99.90;;;;;;5105349;28;19987;-69
2022/10/31 04:29:28;;;;;;;;;;;8.80;99.90;;;;;;5104205;28;19926;-69
2022/10/31 04:31:55;;;;;;;;;;;8.80;99.90;;;;;;5104565;28;19958;-69
2022/10/31 04:34:21;;;;;;;;;;;8.80;99.90;;;;;;5105171;28;19987;-70
2022/10/31 04:36:48;;;;;;;;;;;8.80;99.90;;;;;;5104727;28;19920;-70
2022/10/31 04:39:15;;;;;;;;;;;8.80;99.90;;;;;;5104796;28;19992;-69
2022/10/31 04:41:41;;;;;;;;;;;8.80;99.90;;;;;;5104926;28;19920;-69
2022/10/31 04:44:08;;;;;;;;;;;8.80;99.90;;;;;;5104749;28;20111;-69
2022/10/31 04:46:36;;;;;;;;;;;8.80;99.90;;;;;;5104771;28;19991;-69
2022/10/31 04:49:02;;;;;;;;;;;8.70;99.90;;;;;;5104947;28;19920;-69
2022/10/31 04:51:29;;;;;;;;;;;8.70;99.90;;;;;;5104925;28;20266;-69
2022/10/31 04:53:56;;;;;;;;;;;8.70;99.90;;;;;;5105024;28;19955;-69
2022/10/31 04:56:22;;;;;;;;;;;8.70;99.90;;;;;;5103985;28;20144;-69
2022/10/31 04:58:49;;;;;;;;;;;8.70;99.90;;;;;;5104552;28;19987;-69
2022/10/31 05:01:15;;;;;;;;;;;8.60;99.90;;;;;;5100107;28;19983;-69
2022/10/31 05:03:43;;;;;;;;;;;8.60;99.90;;;;;;5104794;28;19987;-69
2022/10/31 05:06:10;;;;;;;;;;;8.60;99.90;;;;;;5104198;28;19920;-69
2022/10/31 05:08:37;;;;;;;;;;;8.50;99.90;;;;;;5104353;28;20271;-69
2022/10/31 05:11:04;;;;;;;;;;;8.50;99.90;;;;;;5104611;28;19995;-69
2022/10/31 05:13:30;;;;;;;;;;;8.50;99.90;;;;;;5104225;28;19920;-69
2022/10/31 05:15:57;;;;;;;;;;;8.50;99.90;;;;;;5103981;28;19982;-69
2022/10/31 05:18:24;;;;;;;;;;;8.50;99.90;;;;;;5104281;28;19983;-69
2022/10/31 05:20:52;;;;;;;;;;;8.50;99.90;;;;;;5103365;28;19992;-69
2022/10/31 05:23:18;;;;;;;;;;;8.50;99.90;;;;;;5103509;28;19920;-69
2022/10/31 05:25:45;;;;;;;;;;;8.40;99.90;;;;;;5103486;28;19978;-71
2022/10/31 05:28:12;;;;;;;;;;;8.40;99.90;;;;;;5103551;28;20184;-69
2022/10/31 05:30:39;;;;;;;;;;;8.40;99.90;;;;;;5102733;28;20258;-69
2022/10/31 05:33:06;;;;;;;;;;;8.40;99.90;;;;;;5104095;28;19987;-69
2022/10/31 05:35:33;;;;;;;;;;;8.40;99.90;;;;;;5103817;28;19920;-69
2022/10/31 05:38:01;;;;;;;;;;;8.40;99.90;;;;;;5104173;28;19920;-69
2022/10/31 05:40:30;;;;;;;;;;;8.40;99.90;;;;;;5103990;28;20156;-69
2022/10/31 05:42:58;;;;;;;;;;;8.30;99.90;;;;;;5103551;28;19955;-69
2022/10/31 05:45:25;;;;;;;;;;;8.30;99.90;;;;;;5103506;28;20234;-69
2022/10/31 05:47:52;;;;;;;;;;;8.30;99.90;;;;;;5103717;28;19920;-70
2022/10/31 05:50:19;;;;;;;;;;;8.30;99.90;;;;;;5104187;28;20215;-69
2022/10/31 05:52:45;;;;;;;;;;;8.30;99.90;;;;;;5103838;28;19920;-69
2022/10/31 05:55:13;;;;;;;;;;;8.20;99.90;;;;;;5103799;28;19926;-68
2022/10/31 05:57:40;;;;;;;;;;;8.20;99.90;;;;;;5103854;28;20290;-70
2022/10/31 06:00:09;;;;;;;;;;;8.20;99.90;;;;;;5103435;28;19951;-69
2022/10/31 06:02:36;;;;;;;;;;;8.20;99.90;;;;;;5104157;28;19995;-69
2022/10/31 06:05:03;;;;;;;;;;;8.20;99.90;;;;;;5103089;28;19920;-69
2022/10/31 06:07:32;;;;;;;;;;;8.20;99.90;;;;;;5103868;28;20163;-69
2022/10/31 06:09:59;;;;;;;;;;;8.30;99.90;;;;;;5100382;28;19927;-69
2022/10/31 06:12:27;;;;;;;;;;;8.30;99.90;;;;;;5083528;28;19987;-69
2022/10/31 06:14:53;;;;;;;;;;;8.30;99.90;;;;;;5082939;28;20207;-72
2022/10/31 06:17:20;;;;;;;;;;;8.30;99.90;;;;;;5083800;28;19920;-71
2022/10/31 06:19:47;;;;;;;;;;;8.30;99.90;;;;;;5083587;28;19927;-70
2022/10/31 06:22:13;;;;;;;;;;;8.30;99.90;;;;;;5082986;28;20167;-69
2022/10/31 06:24:40;;;;;;;;;;;8.30;99.90;;;;;;5082982;28;20255;-69
2022/10/31 06:27:07;;;;;;;;;;;8.30;99.90;;;;;;5083402;28;19927;-69
2022/10/31 06:29:34;;;;;;;;;;;8.30;99.90;;;;;;5083511;28;19987;-69
2022/10/31 06:32:01;;;;;;;;;;;8.30;99.90;;;;;;5083425;28;19921;-69
2022/10/31 06:34:28;;;;;;;;;;;8.30;99.90;;;;;;5083378;28;19979;-70
2022/10/31 06:36:54;;;;;;;;;;;8.30;99.90;;;;;;5082932;28;19955;-68
2022/10/31 06:39:21;;;;;;;;;;;8.30;99.90;;;;;;5082911;28;19987;-69
2022/10/31 06:41:48;;;;;;;;;;;8.30;99.90;;;;;;5085866;28;19920;-70
2022/10/31 06:44:14;;;;;;;;;;;8.30;99.90;;;;;;5102897;28;19920;-68
2022/10/31 06:46:42;;;;;;;;;;;8.30;99.90;;;;;;5102486;28;19959;-69
2022/10/31 06:49:09;;;;;;;;;;;8.30;99.90;;;;;;5102423;28;20082;-70
2022/10/31 06:51:36;;;;;;;;;;;8.40;99.90;;;;;;5103052;28;19992;-69
2022/10/31 06:54:02;;;;;;;;;;;8.40;99.90;;;;;;5102832;28;19987;-69
2022/10/31 06:56:29;;;;;;;;;;;8.40;99.90;;;;;;5102256;28;20171;-68
2022/10/31 06:58:55;;;;;;;;;;;8.40;99.90;;;;;;5102593;28;19987;-69
2022/10/31 07:01:22;;;;;;;;;;;8.40;99.90;;;;;;5102689;28;19966;-70
2022/10/31 07:03:50;;;;;;;;;;;8.40;99.90;;;;;;5099849;28;20109;-69
2022/10/31 07:06:17;;;;;;;;;;;8.40;99.90;;;;;;5086350;28;19921;-70
2022/10/31 07:08:43;;;;;;;;;;;8.40;99.90;;;;;;5086654;28;19984;-69
2022/10/31 07:11:10;;;;;;;;;;;8.50;99.90;;;;;;5098990;28;19992;-70
2022/10/31 07:13:36;;;;;;;;;;;8.50;99.90;;;;;;5106140;28;19928;-70
2022/10/31 07:16:04;;;;;;;;;;;8.50;99.90;;;;;;5105247;28;19988;-70
2022/10/31 07:18:31;;;;;;;;;;;8.50;99.90;;;;;;5106398;28;19920;-70
2022/10/31 07:20:59;;;;;;;;;;;8.50;99.90;;;;;;5106251;28;20174;-70
2022/10/31 07:23:25;;;;;;;;;;;8.50;99.90;;;;;;5106215;28;20215;-70
2022/10/31 07:25:55;;;;;;;;;;;8.50;99.90;;;;;;5105479;28;19920;-70
2022/10/31 07:28:22;;;;;;;;;;;8.60;99.90;;;;;;5106176;28;19928;-69
2022/10/31 07:30:50;;;;;;;;;;;8.60;99.90;;;;;;5105810;28;20175;-70
2022/10/31 07:33:17;;;;;;;;;;;8.70;99.90;;;;;;5106025;28;19927;-70
2022/10/31 07:35:43;;;;;;;;;;;8.70;99.90;;;;;;5105440;28;19983;-70
2022/10/31 07:38:12;;;;;;;;;;;8.70;99.90;;;;;;5105868;28;19920;-70
2022/10/31 07:40:39;;;;;;;;;;;8.70;99.90;;;;;;5105304;28;19953;-70
2022/10/31 07:43:06;;;;;;;;;;;8.80;99.90;;;;;;5105956;28;19934;-70
2022/10/31 07:45:32;;;;;;;;;;;8.80;99.90;;;;;;5105402;28;20202;-70
2022/10/31 07:47:59;;;;;;;;;;;8.90;99.90;;;;;;5104794;28;20338;-70
2022/10/31 07:50:27;;;;;;;;;;;8.90;99.90;;;;;;5105455;28;19987;-70
2022/10/31 07:53:00;;;;;;;;;;;9.00;99.90;;;;;;5105136;28;19986;-70
2022/10/31 07:55:28;;;;;;;;;;;9.00;99.90;;;;;;5084445;28;19932;-70
2022/10/31 07:57:58;;;;;;;;;;;9.10;99.90;;;;;;5085250;28;19975;-70
2022/10/31 08:00:25;;;;;;;;;;;9.10;99.90;;;;;;5085493;28;19983;-70
2022/10/31 08:02:57;;;;;;;;;;;9.20;99.90;;;;;;5104943;28;19987;-70
2022/10/31 08:05:24;;;;;;;;;;;9.20;99.90;;;;;;5085877;28;19952;-70
2022/10/31 08:07:50;;;;;;;;;;;9.30;99.90;;;;;;5089670;28;19981;-69
2022/10/31 08:10:17;;;;;;;;;;;9.40;99.90;;;;;;5104833;28;19951;-70
2022/10/31 08:12:45;;;;;;;;;;;9.40;99.90;;;;;;5091644;28;19926;-70
2022/10/31 08:15:11;;;;;;;;;;;9.50;99.90;;;;;;5083724;28;19979;-69
2022/10/31 08:17:38;;;;;;;;;;;9.60;99.90;;;;;;5085187;28;19975;-70
2022/10/31 08:20:06;;;;;;;;;;;9.70;99.90;;;;;;5084600;28;19984;-70
2022/10/31 08:22:32;;;;;;;;;;;9.80;99.90;;;;;;5091102;28;19950;-69
2022/10/31 08:24:59;;;;;;;;;;;10.00;99.90;;;;;;5104475;28;20125;-70
2022/10/31 08:27:25;;;;;;;;;;;10.00;99.90;;;;;;5104171;28;19970;-70
2022/10/31 08:29:53;;;;;;;;;;;10.10;99.90;;;;;;5103431;28;19990;-71
2022/10/31 08:32:20;;;;;;;;;;;10.20;99.90;;;;;;5103511;28;20297;-71
2022/10/31 08:34:47;;;;;;;;;;;10.30;99.90;;;;;;5103795;28;19999;-70
2022/10/31 08:37:18;;;;;;;;;;;10.40;99.90;;;;;;5103723;28;19947;-70
2022/10/31 08:39:45;;;;;;;;;;;10.50;99.90;;;;;;5104467;28;20195;-70
2022/10/31 08:42:11;;;;;;;;;;;10.60;99.90;;;;;;5104340;28;19974;-70
2022/10/31 08:44:38;;;;;;;;;;;10.80;99.90;;;;;;5103493;28;19928;-70
2022/10/31 08:47:06;;;;;;;;;;;10.90;99.90;;;;;;5104180;28;19928;-70
2022/10/31 08:49:33;;;;;;;;;;;11.10;99.90;;;;;;5103421;28;20017;-70
2022/10/31 08:52:00;;;;;;;;;;;11.20;99.90;;;;;;5103349;28;20197;-70
2022/10/31 08:54:26;;;;;;;;;;;11.30;99.90;;;;;;5103016;28;19958;-70
2022/10/31 08:56:54;;;;;;;;;;;11.40;99.90;;;;;;5103632;28;19947;-70
2022/10/31 08:59:21;;;;;;;;;;;11.50;99.90;;;;;;5103346;28;19958;-70
2022/10/31 09:01:47;;;;;;;;;;;11.60;99.90;;;;;;5101726;28;19987;-70
2022/10/31 09:04:15;;;;;;;;;;;11.70;99.90;;;;;;5096124;28;19991;-70
2022/10/31 09:06:42;;;;;;;;;;;11.70;99.90;;;;;;5087993;28;19920;-70
2022/10/31 09:09:08;;;;;;;;;;;11.90;99.90;;;;;;5090211;28;19926;-70
2022/10/31 09:11:35;;;;;;;;;;;12.00;99.90;;;;;;5100049;28;20119;-70
2022/10/31 09:14:02;;;;;;;;;;;12.10;99.90;;;;;;5096547;28;19927;-70
2022/10/31 09:16:28;;;;;;;;;;;12.10;99.90;;;;;;5103893;28;19920;-69
2022/10/31 09:18:55;;;;;;;;;;;12.30;99.90;;;;;;5104003;28;19928;-69
2022/10/31 09:21:23;;;;;;;;;;;12.40;99.90;;;;;;5103943;28;20114;-71
2022/10/31 09:23:50;;;;;;;;;;;12.50;99.90;;;;;;5104394;28;19919;-70
2022/10/31 09:26:16;;;;;;;;;;;12.60;99.90;;;;;;5103723;28;20246;-70
2022/10/31 09:28:44;;;;;;;;;;;12.80;99.90;;;;;;5104061;28;19991;-71
2022/10/31 09:31:11;;;;;;;;;;;12.90;99.90;;;;;;5103394;28;19965;-70
2022/10/31 09:33:38;;;;;;;;;;;13.00;99.90;;;;;;5103719;28;20381;-71
2022/10/31 09:36:04;;;;;;;;;;;13.10;99.90;;;;;;5103036;28;20216;-71
2022/10/31 09:38:32;;;;;;;;;;;13.30;99.90;;;;;;5103582;28;20260;-72
2022/10/31 09:41:05;;;;;;;;;;;13.40;99.90;;;;;;5103371;28;19920;-70
2022/10/31 09:43:35;;;;;;;;;;;13.50;99.90;;;;;;5103110;28;19920;-70
2022/10/31 09:46:04;;;;;;;;;;;13.70;99.90;;;;;;5103263;28;20162;-70
2022/10/31 09:48:41;;;;;;;;;;;13.90;99.90;;;;;;5103863;28;20100;-70
2022/10/31 09:51:13;;;;;;;;;;;14.10;99.90;;;;;;5103833;28;19996;-70
2022/10/31 09:53:44;;;;;;;;;;;14.30;99.90;;;;;;5102499;28;19979;-71
2022/10/31 09:56:13;;;;;;;;;;;14.50;99.90;;;;;;5103502;28;19921;-70
2022/10/31 09:58:42;;;;;;;;;;;14.60;99.90;;;;;;5103749;28;19983;-70
2022/10/31 10:01:24;;;;;;;;;;;14.80;99.90;;;;;;5102330;28;19920;-70
2022/10/31 10:03:53;;;;;;;;;;;14.90;99.90;;;;;;5083527;28;19920;-69
2022/10/31 10:06:22;;;;;;;;;;;15.10;99.90;;;;;;5096687;28;20166;-70
2022/10/31 10:08:50;;;;;;;;;;;15.20;99.90;;;;;;5103370;28;19987;-70
2022/10/31 10:11:23;;;;;;;;;;;15.40;99.90;;;;;;5102439;28;19979;-70
2022/10/31 10:14:02;;;;;;;;;;;15.50;99.90;;;;;;5103539;28;19983;-71
2022/10/31 10:16:36;;;;;;;;;;;15.60;99.90;;;;;;5092581;28;19927;-69
2022/10/31 10:19:08;;;;;;;;;;;15.70;99.90;;;;;;5083055;28;19935;-70
2022/10/31 10:21:42;;;;;;;;;;;15.90;99.90;;;;;;5097621;28;19952;-70
2022/10/31 10:24:16;;;;;;;;;;;16.00;99.90;;;;;;5103557;28;19920;-70
2022/10/31 10:26:44;;;;;;;;;;;16.10;99.90;;;;;;5103209;28;19951;-69
2022/10/31 10:29:18;;;;;;;;;;;16.10;99.90;;;;;;5091782;23;19979;-92
2022/10/31 10:31:49;;;;;;;;;;;16.20;99.90;;;;;;5051012;28;19974;-92
2022/10/31 10:34:25;;;;;;;;;;;16.30;99.90;;;;;;5050677;28;19921;-93
2022/10/31 10:36:59;;;;;;;;;;;16.40;99.90;;;;;;5047907;28;19936;-92
2022/10/31 10:39:32;;;;;;;;;;;16.40;99.90;;;;;;5054295;28;19921;-94
2022/10/31 10:47:42;;;;;;;;;;;16.80;99.90;;;;;;5047138;28;20156;-69
2022/10/31 10:50:12;;;;;;;;;;;16.90;99.90;;;;;;5046667;28;19952;-67
2022/10/31 10:52:44;;;;;;;;;;;17.00;99.90;;;;;;5046503;28;19960;-67
2022/10/31 10:55:17;;;;;;;;;;;17.00;99.90;;;;;;5046715;28;19921;-68
2022/10/31 10:57:53;;;;;;;;;;;17.10;99.90;;;;;;5046949;28;19921;-67
2022/10/31 11:00:21;;;;;;;;;;;17.20;99.90;;;;;;5053794;28;19999;-68
2022/10/31 11:02:47;;;;;;;;;;;17.30;99.90;;;;;;5054559;28;19928;-69
2022/10/31 11:05:16;;;;;;;;;;;17.30;99.90;;;;;;5046574;28;20159;-68
2022/10/31 11:07:43;;;;;;;;;;;17.40;99.90;;;;;;5046680;28;19921;-69
2022/10/31 11:10:14;;;;;;;;;;;17.50;99.90;;;;;;5046605;28;20159;-69
2022/10/31 11:12:42;;;;;;;;;;;17.60;99.90;;;;;;5036611;28;19926;-71
2022/10/31 11:15:26;;;;;;;;;;;17.80;99.90;;;;;;5045165;28;19952;-69
2022/10/31 11:17:53;;;;;;;;;;;17.90;99.90;;;;;;5046565;28;20101;-68
2022/10/31 11:20:25;;;;;;;;;;;18.00;99.90;;;;;;5046094;28;19921;-68
2022/10/31 11:23:01;;;;;;;;;;;18.20;99.90;;;;;;5045810;28;19925;-68
2022/10/31 11:25:29;;;;;;;;;;;18.30;99.90;;;;;;5045334;28;19921;-68
2022/10/31 11:28:02;;;;;;;;;;;18.40;99.90;;;;;;5045335;28;19987;-69
2022/10/31 11:30:30;;;;;;;;;;;18.50;99.90;;;;;;5046908;28;19975;-70
2022/10/31 11:32:57;;;;;;;;;;;18.60;99.90;;;;;;5044914;28;19996;-69
2022/10/31 11:35:24;;;;;;;;;;;18.70;99.90;;;;;;5045435;28;20172;-68
2022/10/31 11:37:53;;;;;;;;;;;18.80;99.90;;;;;;5045639;28;19988;-68
2022/10/31 11:40:21;;;;;;;;;;;18.90;99.90;;;;;;5045245;28;19959;-69
2022/10/31 11:42:50;;;;;;;;;;;18.90;99.90;;;;;;5044756;28;19921;-70
2022/10/31 11:45:18;;;;;;;;;;;19.00;99.90;;;;;;5047815;28;20165;-69
2022/10/31 11:47:45;;;;;;;;;;;19.20;99.90;;;;;;5064665;28;20172;-69
2022/10/31 11:50:18;;;;;;;;;;;19.30;99.90;;;;;;5064283;28;19992;-68
2022/10/31 11:52:45;;;;;;;;;;;19.40;99.90;;;;;;5065301;28;20208;-68
2022/10/31 11:55:17;;;;;;;;;;;19.60;99.90;;;;;;5065468;28;19959;-69
2022/10/31 11:57:44;;;;;;;;;;;19.70;99.90;;;;;;5065796;28;19952;-69
2022/10/31 12:00:21;;;;;;;;;;;19.90;99.90;;;;;;5065669;28;19952;-69
2022/10/31 12:02:48;;;;;;;;;;;20.00;99.90;;;;;;5048200;28;19920;-67
2022/10/31 12:05:19;;;;;;;;;;;20.10;99.90;;;;;;5046720;28;20280;-67
2022/10/31 12:07:46;;;;;;;;;;;20.20;99.90;;;;;;5044850;28;19921;-66
2022/10/31 12:10:14;;;;;;;;;;;20.20;99.90;;;;;;5044974;28;19999;-67
2022/10/31 12:12:51;;;;;;;;;;;20.30;99.90;;;;;;5045224;28;19927;-67
2022/10/31 12:15:30;;;;;;;;;;;20.30;99.90;;;;;;5044776;28;19956;-67
2022/10/31 12:18:04;;;;;;;;;;;20.30;99.90;;;;;;5044966;28;19988;-67
2022/10/31 12:20:38;;;;;;;;;;;20.20;99.90;;;;;;5039756;28;19921;-70
2022/10/31 12:23:10;;;;;;;;;;;20.20;99.90;;;;;;5044878;28;19956;-69
2022/10/31 12:25:41;;;;;;;;;;;20.10;99.90;;;;;;5044776;28;19980;-69
2022/10/31 12:28:20;;;;;;;;;;;20.00;99.90;;;;;;5042671;28;19921;-68
2022/10/31 12:30:53;;;;;;;;;;;19.90;99.90;;;;;;5025194;28;19984;-69
2022/10/31 12:33:38;;;;;;;;;;;19.80;99.90;;;;;;5025175;28;19984;-68
2022/10/31 12:36:15;;;;;;;;;;;19.70;99.90;;;;;;5024976;28;19928;-68
2022/10/31 12:39:00;;;;;;;;;;;19.60;99.90;;;;;;5043410;28;20251;-68
2022/10/31 12:41:45;;;;;;;;;;;19.60;99.90;;;;;;5043641;28;19928;-69
2022/10/31 12:44:15;;;;;;;;;;;19.50;99.90;;;;;;5055084;28;19920;-69
2022/10/31 12:46:54;;;;;;;;;;;19.50;99.90;;;;;;5080608;28;19958;-68
2022/10/31 12:49:31;;;;;;;;;;;19.50;99.90;;;;;;5084689;28;19920;-69
2022/10/31 12:52:04;;;;;;;;;;;19.40;99.90;;;;;;5084907;28;19987;-69
2022/10/31 12:54:38;;;;;;;;;;;19.40;99.90;;;;;;5076276;28;20162;-70
2022/10/31 12:57:08;;;;;;;;;;;19.40;99.90;;;;;;5064680;28;19987;-69
2022/10/31 12:59:37;;;;;;;;;;;19.40;99.90;;;;;;5064508;28;20156;-69
2022/10/31 13:02:19;;;;;;;;;;;19.40;99.90;;;;;;5055826;28;19956;-69
2022/10/31 13:04:48;;;;;;;;;;;19.40;99.90;;;;;;5044021;28;19952;-67
2022/10/31 13:07:16;;;;;;;;;;;19.40;99.90;;;;;;5044448;28;19984;-67
2022/10/31 13:09:45;;;;;;;;;;;19.40;99.90;;;;;;5049224;28;19980;-67
2022/10/31 13:12:13;;;;;;;;;;;19.50;99.90;;;;;;5062872;28;19993;-67
2022/10/31 13:14:42;;;;;;;;;;;19.50;99.90;;;;;;5057169;28;19921;-68
2022/10/31 13:17:14;;;;;;;;;;;19.70;99.90;;;;;;5061508;28;20154;-67
2022/10/31 13:19:43;;;;;;;;;;;19.70;99.90;;;;;;5063566;28;19980;-67
2022/10/31 13:22:13;;;;;;;;;;;19.90;99.90;;;;;;5063317;28;19980;-70
2022/10/31 13:24:42;;;;;;;;;;;19.90;99.90;;;;;;5062855;28;19956;-69
2022/10/31 13:27:13;;;;;;;;;;;19.90;99.90;;;;;;5063208;28;19988;-68
2022/10/31 13:29:43;;;;;;;;;;;20.00;99.90;;;;;;5072417;28;19983;-67
2022/10/31 13:32:12;;;;;;;;;;;20.00;99.90;;;;;;5083153;28;19920;-67
2022/10/31 13:34:41;;;;;;;;;;;20.00;99.90;;;;;;5083670;28;19999;-67
2022/10/31 13:37:14;;;;;;;;;;;20.00;99.90;;;;;;5083598;28;19956;-68
2022/10/31 13:39:49;;;;;;;;;;;20.00;99.90;;;;;;5083218;28;20200;-67
2022/10/31 13:42:20;;;;;;;;;;;20.00;99.90;;;;;;5083700;28;19988;-68
2022/10/31 13:44:46;;;;;;;;;;;19.90;99.90;;;;;;5064063;28;20137;-69
2022/10/31 13:47:25;;;;;;;;;;;19.90;99.90;;;;;;5063341;28;19956;-69
2022/10/31 13:49:52;;;;;;;;;;;19.90;99.90;;;;;;5063626;28;20183;-67
2022/10/31 13:52:24;;;;;;;;;;;19.80;99.90;;;;;;5063567;28;19989;-67
2022/10/31 13:54:55;;;;;;;;;;;19.80;99.90;;;;;;5062943;28;19920;-67
2022/10/31 13:57:31;;;;;;;;;;;19.80;99.90;;;;;;5063342;28;19920;-67
2022/10/31 13:59:59;;;;;;;;;;;19.80;99.90;;;;;;5063420;28;19921;-68
2022/10/31 14:02:28;;;;;;;;;;;19.70;99.90;;;;;;5063205;28;19995;-68
2022/10/31 14:04:57;;;;;;;;;;;19.70;99.90;;;;;;5063264;28;19921;-67
2022/10/31 14:07:24;;;;;;;;;;;19.60;99.90;;;;;;5063455;28;19999;-68
2022/10/31 14:09:55;;;;;;;;;;;19.60;99.90;;;;;;5062834;28;20223;-66
2022/10/31 14:12:27;;;;;;;;;;;19.50;99.90;;;;;;5064133;28;19943;-68
2022/10/31 14:14:56;;;;;;;;;;;19.50;99.90;;;;;;5066808;28;20004;-67
2022/10/31 14:17:24;;;;;;;;;;;19.40;99.90;;;;;;5067147;28;19987;-67
2022/10/31 14:20:02;;;;;;;;;;;19.40;99.90;;;;;;5066936;28;19984;-67
2022/10/31 14:22:38;;;;;;;;;;;19.30;99.90;;;;;;5066736;28;19920;-67
2022/10/31 14:25:20;;;;;;;;;;;19.40;99.90;;;;;;5067281;28;19948;-67
2022/10/31 14:27:47;;;;;;;;;;;19.30;99.90;;;;;;5063555;28;20000;-67
2022/10/31 14:30:18;;;;;;;;;;;19.20;99.90;;;;;;5066991;28;19964;-67
2022/10/31 14:32:46;;;;;;;;;;;19.20;99.90;;;;;;5066291;28;19921;-67
2022/10/31 14:35:16;;;;;;;;;;;19.10;99.90;;;;;;5067114;28;19927;-67
2022/10/31 14:37:50;;;;;;;;;;;19.10;99.90;;;;;;5067116;28;19921;-67
2022/10/31 14:40:28;;;;;;;;;;;19.00;99.90;;;;;;5066974;28;19988;-68